createdAt,value
2019-05-19T00:01:33.145Z,44.80
2019-05-19T00:04:00.774Z,44.90
2019-05-19T00:06:28.383Z,44.63
2019-05-19T00:08:56.026Z,49.27
2019-05-19T00:11:23.617Z,44.57
2019-05-19T00:13:51.264Z,46.30
2019-05-19T00:16:18.889Z,46.47
2019-05-19T00:18:46.626Z,45.70
2019-05-19T00:21:14.231Z,45.07
2019-05-19T00:23:41.865Z,46.60
2019-05-19T00:26:09.480Z,47.90
2019-05-19T00:28:37.114Z,49.20
2019-05-19T00:31:04.716Z,56.97
2019-05-19T00:33:32.365Z,54.63
2019-05-19T00:35:59.965Z,60.03
2019-05-19T00:38:27.605Z,58.60
2019-05-19T00:40:55.288Z,64.10
2019-05-19T00:43:22.913Z,69.80
2019-05-19T00:45:50.555Z,59.57
2019-05-19T00:48:18.167Z,66.53
2019-05-19T00:50:45.830Z,57.70
2019-05-19T00:53:13.462Z,54.90
2019-05-19T00:55:41.119Z,57.30
2019-05-19T00:58:08.745Z,51.77
2019-05-19T01:00:36.394Z,50.37
2019-05-19T01:03:04.005Z,53.40
2019-05-19T01:05:31.665Z,63.97
2019-05-19T01:07:59.289Z,56.00
2019-05-19T01:10:26.934Z,82.03
2019-05-19T01:12:54.550Z,60.13
2019-05-19T01:15:22.209Z,71.50
2019-05-19T01:17:49.842Z,62.57
2019-05-19T01:20:17.514Z,62.07
2019-05-19T01:22:45.182Z,63.03
2019-05-19T01:25:14.207Z,63.97
2019-05-19T01:27:41.804Z,62.53
2019-05-19T01:30:09.952Z,63.13
2019-05-19T01:32:37.571Z,56.03
2019-05-19T01:35:05.716Z,67.73
2019-05-19T01:37:33.417Z,69.13
2019-05-19T01:40:01.021Z,67.47
2019-05-19T01:42:28.667Z,68.63
2019-05-19T01:44:56.304Z,68.67
2019-05-19T01:47:23.934Z,68.93
2019-05-19T01:49:51.547Z,65.17
2019-05-19T01:52:19.167Z,67.57
2019-05-19T01:54:46.807Z,64.37
2019-05-19T01:57:14.421Z,62.97
2019-05-19T01:59:42.049Z,73.27
2019-05-19T02:02:09.719Z,69.93
2019-05-19T02:04:37.408Z,68.67
2019-05-19T02:07:05.057Z,67.40
2019-05-19T02:09:32.675Z,67.07
2019-05-19T02:12:00.314Z,69.57
2019-05-19T02:14:27.918Z,67.73
2019-05-19T02:16:55.633Z,57.90
2019-05-19T02:19:23.231Z,66.40
2019-05-19T02:21:50.869Z,68.80
2019-05-19T02:24:19.124Z,68.47
2019-05-19T02:26:46.865Z,64.07
2019-05-19T02:29:14.494Z,68.23
2019-05-19T02:31:42.174Z,62.63
2019-05-19T02:34:09.802Z,69.87
2019-05-19T02:36:37.465Z,74.43
2019-05-19T02:39:05.238Z,68.10
2019-05-19T02:41:33.075Z,78.03
2019-05-19T02:44:01.900Z,75.50
2019-05-19T02:46:30.348Z,77.73
2019-05-19T02:48:58.627Z,75.80
2019-05-19T02:51:27.773Z,73.70
2019-05-19T02:53:55.748Z,85.27
2019-05-19T02:56:24.934Z,82.33
2019-05-19T02:58:53.166Z,82.03
2019-05-19T03:01:20.813Z,90.67
2019-05-19T03:03:48.485Z,106.30
2019-05-19T03:06:16.138Z,97.40
2019-05-19T03:08:43.830Z,95.97
2019-05-19T03:11:11.475Z,107.10
2019-05-19T03:13:39.083Z,111.03
2019-05-19T03:16:06.732Z,122.00
2019-05-19T03:18:34.360Z,109.80
2019-05-19T03:21:11.158Z,107.93
2019-05-19T03:23:31.462Z,123.60
2019-05-19T03:25:59.100Z,125.77
2019-05-19T03:28:26.717Z,115.97
2019-05-19T03:31:01.901Z,107.97
2019-05-19T03:33:31.018Z,116.57
2019-05-19T03:35:58.635Z,100.10
2019-05-19T03:38:26.259Z,106.27
2019-05-19T03:40:53.918Z,113.47
2019-05-19T03:43:21.584Z,174.63
2019-05-19T03:45:49.226Z,122.10
2019-05-19T03:48:16.970Z,120.30
2019-05-19T03:50:44.586Z,123.80
2019-05-19T03:53:12.269Z,114.03
2019-05-19T03:55:39.892Z,112.13
2019-05-19T03:58:07.518Z,109.93
2019-05-19T04:00:35.123Z,111.60
2019-05-19T04:03:02.782Z,107.83
2019-05-19T04:05:30.396Z,110.70
2019-05-19T04:07:58.138Z,116.00
2019-05-19T04:10:25.732Z,120.33
2019-05-19T04:12:53.384Z,98.37
2019-05-19T04:15:21.000Z,110.57
2019-05-19T04:17:48.729Z,106.07
2019-05-19T04:20:16.447Z,115.57
2019-05-19T04:22:44.073Z,101.90
2019-05-19T04:25:11.732Z,105.63
2019-05-19T04:27:39.377Z,98.90
2019-05-19T04:30:07.205Z,104.87
2019-05-19T04:32:34.855Z,91.83
2019-05-19T04:35:02.984Z,91.40
2019-05-19T04:37:30.614Z,90.43
2019-05-19T04:39:58.230Z,96.50
2019-05-19T04:42:25.884Z,100.73
2019-05-19T04:44:53.515Z,84.07
2019-05-19T04:47:21.149Z,80.17
2019-05-19T04:49:48.798Z,91.90
2019-05-19T04:52:16.467Z,76.97
2019-05-19T04:54:44.098Z,85.30
2019-05-19T04:57:11.743Z,78.13
2019-05-19T04:59:39.393Z,80.40
2019-05-19T05:02:07.065Z,75.07
2019-05-19T05:04:34.683Z,77.30
2019-05-19T05:07:02.335Z,70.93
2019-05-19T05:09:29.979Z,75.17
2019-05-19T05:11:57.665Z,72.83
2019-05-19T05:14:25.326Z,68.97
2019-05-19T05:16:54.389Z,73.73
2019-05-19T05:19:22.067Z,69.83
2019-05-19T05:21:49.718Z,77.00
2019-05-19T05:24:17.390Z,73.50
2019-05-19T05:26:45.016Z,67.53
2019-05-19T05:29:13.477Z,76.10
2019-05-19T05:31:41.130Z,72.20
2019-05-19T05:34:08.804Z,77.17
2019-05-19T05:36:36.460Z,73.63
2019-05-19T05:39:04.881Z,71.27
2019-05-19T05:41:32.508Z,72.03
2019-05-19T05:44:00.162Z,70.40
2019-05-19T05:46:27.774Z,71.70
2019-05-19T05:48:55.454Z,70.53
2019-05-19T05:51:23.073Z,64.03
2019-05-19T05:53:50.764Z,68.43
2019-05-19T05:56:18.377Z,64.30
2019-05-19T05:58:47.959Z,64.03
2019-05-19T06:01:15.584Z,61.17
2019-05-19T06:03:43.237Z,63.03
2019-05-19T06:06:10.842Z,58.03
2019-05-19T06:08:38.486Z,62.43
2019-05-19T06:11:06.185Z,61.23
2019-05-19T06:13:33.806Z,57.50
2019-05-19T06:16:01.490Z,61.60
2019-05-19T06:18:29.167Z,58.63
2019-05-19T06:20:56.756Z,58.47
2019-05-19T06:23:24.409Z,55.73
2019-05-19T06:25:52.001Z,60.73
2019-05-19T06:28:19.687Z,59.40
2019-05-19T06:30:47.319Z,55.60
2019-05-19T06:33:14.992Z,55.10
2019-05-19T06:36:07.820Z,53.73
2019-05-19T06:38:35.607Z,54.67
2019-05-19T06:41:04.625Z,52.77
2019-05-19T06:43:32.255Z,54.67
2019-05-19T06:45:59.936Z,54.80
2019-05-19T06:48:27.579Z,54.07
2019-05-19T06:50:55.200Z,51.67
2019-05-19T06:53:22.889Z,54.93
2019-05-19T06:55:50.558Z,54.17
2019-05-19T06:58:18.225Z,51.07
2019-05-19T07:00:45.829Z,50.93
2019-05-19T07:03:13.496Z,53.93
2019-05-19T07:05:41.148Z,51.77
2019-05-19T07:08:08.776Z,49.67
2019-05-19T07:10:36.403Z,49.43
2019-05-19T07:13:04.075Z,44.80
2019-05-19T07:15:31.743Z,49.00
2019-05-19T07:17:59.381Z,47.03
2019-05-19T07:20:27.054Z,47.77
2019-05-19T07:22:55.986Z,46.53
2019-05-19T07:25:23.639Z,42.83
2019-05-19T07:27:51.251Z,40.80
2019-05-19T07:30:18.869Z,41.53
2019-05-19T07:32:46.522Z,42.40
2019-05-19T07:35:14.268Z,40.33
2019-05-19T07:37:41.896Z,39.77
2019-05-19T07:40:10.010Z,41.08
2019-05-19T07:42:37.655Z,37.67
2019-05-19T07:45:05.328Z,36.23
2019-05-19T07:47:33.382Z,37.33
2019-05-19T07:50:01.657Z,35.65
2019-05-19T07:52:29.277Z,33.78
2019-05-19T07:54:56.937Z,31.85
2019-05-19T07:57:24.607Z,32.98
2019-05-19T07:59:52.308Z,29.48
2019-05-19T08:02:19.912Z,30.52
2019-05-19T08:04:47.679Z,30.82
2019-05-19T08:07:15.382Z,30.85
2019-05-19T08:09:43.042Z,29.12
2019-05-19T08:12:10.687Z,27.50
2019-05-19T08:14:38.377Z,27.75
2019-05-19T08:17:06.020Z,27.07
2019-05-19T08:19:33.638Z,26.73
2019-05-19T08:22:01.261Z,25.90
2019-05-19T08:24:28.871Z,22.90
2019-05-19T08:26:56.520Z,25.17
2019-05-19T08:29:26.028Z,23.22
2019-05-19T08:31:53.694Z,22.48
2019-05-19T08:34:21.322Z,21.68
2019-05-19T08:36:48.986Z,22.98
2019-05-19T08:39:16.750Z,22.87
2019-05-19T08:41:44.662Z,21.40
2019-05-19T08:44:12.512Z,20.97
2019-05-19T08:46:40.307Z,19.57
2019-05-19T08:49:07.950Z,19.37
2019-05-19T08:51:35.668Z,20.72
2019-05-19T08:54:14.425Z,18.95
2019-05-19T08:56:32.817Z,17.80
2019-05-19T08:59:00.439Z,18.12
2019-05-19T09:01:28.100Z,16.95
2019-05-19T09:03:55.735Z,16.48
2019-05-19T09:06:23.439Z,15.80
2019-05-19T09:08:51.058Z,15.75
2019-05-19T09:11:18.776Z,15.28
2019-05-19T09:13:46.387Z,14.78
2019-05-19T09:16:14.053Z,13.13
2019-05-19T09:18:41.710Z,14.40
2019-05-19T09:21:09.391Z,13.78
2019-05-19T09:23:36.997Z,13.05
2019-05-19T09:26:04.679Z,12.40
2019-05-19T09:28:32.287Z,12.30
2019-05-19T09:30:59.943Z,12.70
2019-05-19T09:33:27.563Z,11.30
2019-05-19T09:35:55.177Z,12.05
2019-05-19T09:38:22.809Z,12.45
2019-05-19T09:40:50.483Z,11.73
2019-05-19T09:43:18.118Z,12.05
2019-05-19T09:45:45.804Z,12.10
2019-05-19T09:48:13.528Z,11.10
2019-05-19T09:50:41.164Z,11.43
2019-05-19T09:53:08.828Z,10.60
2019-05-19T09:55:36.427Z,12.90
2019-05-19T09:58:04.076Z,11.63
2019-05-19T10:00:31.864Z,11.05
2019-05-19T10:02:59.531Z,10.28
2019-05-19T10:05:27.174Z,10.88
2019-05-19T10:07:55.361Z,10.48
2019-05-19T10:10:24.555Z,10.93
2019-05-19T10:12:52.226Z,12.68
2019-05-19T10:15:21.591Z,10.85
2019-05-19T10:17:49.249Z,9.50
2019-05-19T10:20:16.889Z,10.40
2019-05-19T10:22:44.802Z,9.68
2019-05-19T10:25:21.505Z,9.20
2019-05-19T10:27:41.984Z,8.53
2019-05-19T10:30:10.115Z,7.75
2019-05-19T10:32:37.885Z,6.83
2019-05-19T10:35:05.810Z,6.67
2019-05-19T10:37:33.455Z,6.20
2019-05-19T10:40:01.088Z,5.95
2019-05-19T10:42:28.761Z,6.50
2019-05-19T10:44:56.405Z,7.15
2019-05-19T10:47:24.081Z,7.30
2019-05-19T10:49:51.727Z,7.53
2019-05-19T10:52:19.397Z,7.83
2019-05-19T10:54:47.154Z,6.78
2019-05-19T10:57:14.803Z,7.30
2019-05-19T10:59:42.474Z,6.35
2019-05-19T11:02:10.111Z,5.62
2019-05-19T11:04:37.771Z,6.00
2019-05-19T11:07:05.385Z,6.90
2019-05-19T11:09:33.026Z,6.47
2019-05-19T11:12:00.647Z,6.05
2019-05-19T11:14:28.427Z,5.87
2019-05-19T11:16:56.072Z,6.25
2019-05-19T11:19:23.786Z,6.25
2019-05-19T11:21:51.433Z,7.70
2019-05-19T11:24:19.061Z,7.62
2019-05-19T11:26:46.705Z,7.17
2019-05-19T11:29:14.371Z,6.30
2019-05-19T11:31:42.000Z,6.33
2019-05-19T11:34:09.637Z,5.78
2019-05-19T11:36:37.270Z,6.45
2019-05-19T11:39:06.268Z,6.10
2019-05-19T11:41:33.864Z,6.25
2019-05-19T11:44:01.501Z,6.83
2019-05-19T11:46:29.114Z,7.40
2019-05-19T11:48:56.738Z,5.97
2019-05-19T11:51:24.388Z,6.53
2019-05-19T11:53:52.040Z,6.47
2019-05-19T11:56:20.183Z,5.80
2019-05-19T11:58:47.830Z,6.50
2019-05-19T12:01:16.753Z,7.03
2019-05-19T12:03:44.361Z,6.67
2019-05-19T12:06:11.971Z,6.62
2019-05-19T12:08:39.579Z,7.08
2019-05-19T12:11:07.236Z,6.42
2019-05-19T12:13:35.176Z,5.80
2019-05-19T12:16:03.164Z,7.15
2019-05-19T12:18:30.814Z,6.15
2019-05-19T12:20:58.456Z,7.87
2019-05-19T12:23:26.064Z,7.62
2019-05-19T12:25:53.693Z,6.62
2019-05-19T12:28:21.306Z,6.37
2019-05-19T12:30:48.974Z,6.67
2019-05-19T12:33:16.593Z,6.97
2019-05-19T12:35:44.226Z,6.62
2019-05-19T12:38:11.883Z,6.15
2019-05-19T12:40:40.040Z,5.70
2019-05-19T12:43:07.682Z,5.70
2019-05-19T12:45:35.315Z,5.78
2019-05-19T12:48:02.942Z,5.22
2019-05-19T12:50:30.594Z,5.37
2019-05-19T12:52:58.217Z,5.85
2019-05-19T12:55:25.890Z,5.60
2019-05-19T12:57:53.513Z,6.33
2019-05-19T13:00:21.254Z,4.85
2019-05-19T13:02:48.894Z,5.00
2019-05-19T13:05:16.550Z,5.58
2019-05-19T13:07:44.167Z,5.15
2019-05-19T13:10:11.925Z,5.00
2019-05-19T13:12:39.568Z,5.08
2019-05-19T13:15:07.920Z,5.72
2019-05-19T13:17:35.599Z,6.20
2019-05-19T13:20:03.687Z,5.33
2019-05-19T13:22:31.304Z,6.22
2019-05-19T13:24:59.099Z,5.75
2019-05-19T13:27:26.729Z,5.40
2019-05-19T13:29:54.404Z,6.60
2019-05-19T13:32:22.027Z,5.35
2019-05-19T13:34:49.673Z,5.00
2019-05-19T13:37:17.325Z,5.33
2019-05-19T13:39:44.937Z,5.12
2019-05-19T13:42:12.577Z,4.80
2019-05-19T13:44:40.209Z,5.58
2019-05-19T13:47:10.101Z,5.03
2019-05-19T13:49:37.752Z,5.12
2019-05-19T13:52:05.397Z,4.90
2019-05-19T13:54:33.088Z,5.30
2019-05-19T13:57:11.869Z,6.30
2019-05-19T13:59:30.132Z,4.97
2019-05-19T14:01:57.782Z,5.08
2019-05-19T14:04:25.385Z,5.35
2019-05-19T14:06:53.231Z,4.80
2019-05-19T14:09:20.867Z,4.40
2019-05-19T14:11:48.549Z,4.83
2019-05-19T14:14:16.173Z,4.97
2019-05-19T14:16:43.815Z,4.37
2019-05-19T14:19:11.450Z,4.53
2019-05-19T14:21:39.084Z,5.30
2019-05-19T14:24:06.700Z,4.30
2019-05-19T14:26:34.349Z,4.45
2019-05-19T14:29:02.331Z,4.30
2019-05-19T14:31:30.066Z,4.40
2019-05-19T14:33:57.677Z,3.67
2019-05-19T14:36:25.381Z,3.95
2019-05-19T14:38:59.985Z,4.95
2019-05-19T14:41:33.587Z,3.15
2019-05-19T14:43:57.735Z,2.70
2019-05-19T14:46:25.401Z,2.90
2019-05-19T14:48:53.021Z,4.58
2019-05-19T14:51:20.661Z,3.40
2019-05-19T14:53:48.270Z,3.72
2019-05-19T14:56:15.945Z,3.08
2019-05-19T14:58:43.593Z,2.87
2019-05-19T15:01:11.228Z,2.90
2019-05-19T15:03:38.823Z,3.55
2019-05-19T15:06:06.450Z,2.85
2019-05-19T15:08:34.069Z,2.52
2019-05-19T15:11:01.710Z,2.80
2019-05-19T15:13:29.310Z,2.80
2019-05-19T15:15:58.096Z,2.67
2019-05-19T15:18:25.904Z,2.10
2019-05-19T15:20:53.659Z,2.10
2019-05-19T15:23:21.308Z,2.22
2019-05-19T15:25:48.932Z,2.37
2019-05-19T15:28:16.562Z,2.20
2019-05-19T15:30:44.718Z,1.90
2019-05-19T15:33:12.690Z,1.90
2019-05-19T15:35:40.308Z,1.90
2019-05-19T15:38:07.924Z,2.08
2019-05-19T15:40:35.561Z,2.58
2019-05-19T15:43:03.224Z,2.15
2019-05-19T15:45:30.861Z,2.55
2019-05-19T15:47:58.507Z,2.00
2019-05-19T15:50:26.113Z,2.00
2019-05-19T15:52:53.894Z,2.12
2019-05-19T15:55:21.561Z,2.35
2019-05-19T15:57:49.200Z,2.30
2019-05-19T16:00:16.959Z,2.35
2019-05-19T16:02:44.662Z,2.42
2019-05-19T16:05:12.574Z,2.25
2019-05-19T16:07:40.255Z,2.47
2019-05-19T16:10:08.069Z,2.47
2019-05-19T16:12:35.751Z,2.10
2019-05-19T16:15:03.735Z,2.27
2019-05-19T16:17:31.361Z,2.40
2019-05-19T16:19:59.009Z,2.02
2019-05-19T16:22:26.642Z,2.00
2019-05-19T16:24:54.296Z,2.75
2019-05-19T16:27:21.911Z,2.37
2019-05-19T16:29:49.582Z,1.98
2019-05-19T16:32:17.232Z,2.20
2019-05-19T16:34:44.852Z,2.42
2019-05-19T16:37:12.505Z,2.10
2019-05-19T16:39:40.112Z,2.27
2019-05-19T16:42:07.762Z,2.05
2019-05-19T16:44:35.439Z,2.50
2019-05-19T16:47:03.128Z,2.37
2019-05-19T16:49:30.834Z,2.10
2019-05-19T16:51:58.538Z,2.70
2019-05-19T16:54:30.684Z,2.83
2019-05-19T16:56:58.379Z,2.60
2019-05-19T16:59:25.997Z,2.77
2019-05-19T17:01:53.638Z,2.40
2019-05-19T17:04:21.265Z,2.37
2019-05-19T17:06:48.870Z,2.15
2019-05-19T17:09:16.502Z,2.83
2019-05-19T17:11:44.130Z,2.40
2019-05-19T17:14:11.774Z,2.40
2019-05-19T17:16:39.360Z,2.95
2019-05-19T17:19:08.414Z,4.20
2019-05-19T17:21:36.014Z,3.62
2019-05-19T17:24:03.805Z,4.70
2019-05-19T17:26:31.391Z,3.20
2019-05-19T17:29:00.952Z,3.80
2019-05-19T17:31:28.608Z,2.92
2019-05-19T17:33:56.255Z,3.92
2019-05-19T17:36:27.166Z,2.55
2019-05-19T17:38:53.374Z,3.42
2019-05-19T17:41:20.978Z,2.98
2019-05-19T17:43:48.595Z,2.70
2019-05-19T17:46:16.216Z,2.95
2019-05-19T17:48:43.926Z,3.00
2019-05-19T17:51:11.537Z,5.37
2019-05-19T17:53:39.190Z,3.02
2019-05-19T17:56:06.940Z,3.42
2019-05-19T17:58:34.570Z,3.75
2019-05-19T18:01:07.622Z,3.72
2019-05-19T18:03:35.277Z,3.50
2019-05-19T18:06:02.926Z,4.33
2019-05-19T18:08:30.552Z,7.73
2019-05-19T18:10:58.197Z,6.25
2019-05-19T18:13:25.844Z,5.23
2019-05-19T18:15:53.547Z,5.10
2019-05-19T18:18:21.177Z,5.60
2019-05-19T18:20:48.792Z,6.07
2019-05-19T18:23:16.428Z,7.50
2019-05-19T18:25:44.074Z,7.33
2019-05-19T18:28:11.824Z,8.67
2019-05-19T18:30:39.459Z,9.10
2019-05-19T18:33:07.057Z,9.40
2019-05-19T18:35:34.693Z,9.53
2019-05-19T18:38:02.342Z,9.70
2019-05-19T18:40:30.009Z,10.80
2019-05-19T18:43:02.970Z,11.50
2019-05-19T18:45:30.565Z,12.57
2019-05-19T18:47:58.172Z,11.53
2019-05-19T18:50:25.821Z,10.53
2019-05-19T18:52:53.447Z,11.07
2019-05-19T18:55:21.118Z,11.50
2019-05-19T18:57:48.751Z,12.37
2019-05-19T19:00:21.139Z,12.93
2019-05-19T19:02:48.725Z,14.40
2019-05-19T19:05:16.366Z,14.70
2019-05-19T19:07:49.029Z,14.13
2019-05-19T19:10:16.642Z,16.40
2019-05-19T19:12:44.262Z,17.43
2019-05-19T19:15:12.127Z,17.07
2019-05-19T19:17:39.770Z,17.00
2019-05-19T19:20:07.417Z,17.13
2019-05-19T19:22:35.143Z,15.70
2019-05-19T19:25:02.781Z,18.13
2019-05-19T19:27:30.474Z,16.00
2019-05-19T19:30:03.759Z,16.83
2019-05-19T19:32:27.575Z,18.87
2019-05-19T19:34:55.205Z,17.00
2019-05-19T19:37:22.901Z,17.77
2019-05-19T19:39:50.541Z,18.50
2019-05-19T19:42:18.206Z,17.23
2019-05-19T19:44:45.834Z,16.23
2019-05-19T19:47:13.552Z,16.87
2019-05-19T19:49:41.170Z,16.73
2019-05-19T19:52:08.813Z,16.80
2019-05-19T19:54:36.431Z,18.80
2019-05-19T19:57:04.096Z,19.60
2019-05-19T19:59:31.795Z,18.50
2019-05-19T20:01:59.540Z,18.67
2019-05-19T20:04:27.125Z,19.37
2019-05-19T20:06:54.950Z,19.03
2019-05-19T20:09:22.572Z,17.73
2019-05-19T20:11:50.271Z,18.57
2019-05-19T20:14:17.901Z,17.67
2019-05-19T20:16:45.550Z,16.90
2019-05-19T20:19:13.186Z,17.50
2019-05-19T20:21:40.828Z,16.27
2019-05-19T20:24:08.499Z,15.80
2019-05-19T20:26:36.116Z,15.93
2019-05-19T20:29:03.777Z,16.00
2019-05-19T20:31:31.710Z,14.93
2019-05-19T20:33:59.396Z,14.33
2019-05-19T20:36:27.069Z,12.83
2019-05-19T20:38:54.660Z,11.60
2019-05-19T20:41:22.256Z,11.37
2019-05-19T20:43:49.895Z,10.33
2019-05-19T20:46:17.527Z,8.90
2019-05-19T20:48:45.189Z,9.40
2019-05-19T20:51:12.815Z,8.20
2019-05-19T20:53:40.462Z,7.53
2019-05-19T20:56:08.100Z,8.00
2019-05-19T20:58:35.766Z,7.23
2019-05-19T21:01:03.398Z,7.97
2019-05-19T21:03:31.055Z,8.07
2019-05-19T21:05:58.694Z,7.97
2019-05-19T21:08:26.348Z,8.57
2019-05-19T21:10:58.233Z,7.53
2019-05-19T21:13:25.893Z,8.03
2019-05-19T21:15:53.507Z,8.13
2019-05-19T21:18:21.148Z,7.80
2019-05-19T21:20:49.091Z,7.87
2019-05-19T21:23:16.834Z,9.40
2019-05-19T21:25:44.457Z,8.37
2019-05-19T21:28:12.125Z,8.60
2019-05-19T21:30:39.752Z,9.53
2019-05-19T21:33:07.371Z,8.87
2019-05-19T21:35:34.995Z,9.20
2019-05-19T21:38:02.635Z,8.90
2019-05-19T21:40:30.258Z,9.13
2019-05-19T21:42:57.902Z,9.33
2019-05-19T21:45:25.501Z,9.40
2019-05-19T21:47:53.182Z,10.53
2019-05-19T21:50:20.827Z,11.37
2019-05-19T21:52:48.467Z,10.40
2019-05-19T21:55:16.110Z,10.43
2019-05-19T21:57:43.761Z,11.03
2019-05-19T22:00:11.651Z,11.00
2019-05-19T22:02:39.295Z,11.23
2019-05-19T22:05:06.909Z,13.00
2019-05-19T22:08:00.331Z,11.77
2019-05-19T22:10:27.956Z,11.33
2019-05-19T22:12:55.584Z,12.37
2019-05-19T22:15:23.245Z,12.30
2019-05-19T22:17:50.942Z,11.90
2019-05-19T22:20:18.772Z,12.60
2019-05-19T22:22:46.509Z,12.67
2019-05-19T22:25:14.163Z,13.90
2019-05-19T22:27:41.801Z,13.43
2019-05-19T22:30:09.654Z,12.67
2019-05-19T22:32:37.271Z,13.53
2019-05-19T22:35:04.909Z,12.87
2019-05-19T22:37:32.517Z,13.77
2019-05-19T22:40:00.175Z,14.17
2019-05-19T22:42:27.833Z,12.80
2019-05-19T22:44:55.487Z,12.60
2019-05-19T22:47:23.132Z,15.57
2019-05-19T22:49:50.765Z,12.73
2019-05-19T22:52:18.364Z,13.67
2019-05-19T22:54:46.007Z,14.13
2019-05-19T22:57:13.643Z,13.00
2019-05-19T22:59:41.319Z,11.80
2019-05-19T23:02:09.437Z,13.33
2019-05-19T23:04:37.169Z,13.03
2019-05-19T23:07:04.821Z,11.70
2019-05-19T23:09:32.481Z,13.07
2019-05-19T23:12:00.112Z,13.93
2019-05-19T23:14:27.767Z,12.63
2019-05-19T23:16:55.380Z,12.37
2019-05-19T23:19:23.048Z,12.80
2019-05-19T23:21:50.664Z,12.63
2019-05-19T23:24:18.323Z,13.30
2019-05-19T23:26:45.898Z,13.70
2019-05-19T23:29:13.516Z,13.60
2019-05-19T23:31:41.148Z,14.77
2019-05-19T23:34:08.788Z,14.20
2019-05-19T23:36:36.389Z,13.80
2019-05-19T23:39:05.006Z,14.33
2019-05-19T23:41:32.619Z,15.00
2019-05-19T23:44:00.305Z,16.30
2019-05-19T23:46:27.914Z,15.83
2019-05-19T23:48:55.540Z,15.73
2019-05-19T23:51:23.224Z,17.20
2019-05-19T23:53:50.879Z,15.90
2019-05-19T23:56:18.526Z,18.33
2019-05-19T23:58:46.157Z,16.67
